Terminal Aerodrome Forecast
Issued by NWS State College, PA

Home | Current Version | Previous Version | Text Only | Print | Product List | Glossary On
Versions: 1 2 3 4 5 6 7 8 9 10 11 12 13 14 15 16 17 18 19 20 21 22 23 24 25 26 27 28 29 30 31
000
FTUS41 KCTP 252322
TAFMDT
TAF
KMDT 252322Z 2600/2624 VRB05KT P6SM VCTS SCT050 BKN100CB
      TEMPO 2600/2601 35020G40KT 1SM +TSRA BR OVC035CB
     FM260100 26007KT P6SM BKN035
     FM260800 VRB03KT 4SM BR SCT030
     FM261300 29007KT P6SM SCT050=

USA.gov is the U.S. government's official web portal to all federal, state and local government web resources and services.